Cleveland, Ohio
Traffic Map
Current Weather Conditions
Cleveland, Ohio
Overcast
Overcast
19°
Feels Like: 4°
Wind Chill: Ceiling: 4800
Heat Index: 19° Visibility: 10mi
Dew Point: Wind: 16mph
Humidity: 65% Direction: 340° (NNW)
Pressure: 30.15in Gusts: 0mph
Raw Report DataKBKL 281053Z 34014KT 10SM SCT032 SCT040 OVC048 M07/M13 A3015 RMK AO2 SLP218 T10721128
Traffic Incident Summary
Active as of:
Severity:
Category:
InformationThere was an issue retrieving the traffic information for this location. Please try a different location or try again shortly.
Advertisements
Track Severe Weather on mobile